sensor_id;sensor_type;location;lat;lon;timestamp;pressure;altitude;pressure_sealevel;temperature;humidity
2711;BME280;20721;47.402;8.550;2023-02-14T00:00:33;97916;;;3.86;64.94
2711;BME280;20721;47.402;8.550;2023-02-14T00:01:34;97917;;;3.87;64.76
2711;BME280;20721;47.402;8.550;2023-02-14T00:02:34;97917;;;3.88;64.73
2711;BME280;20721;47.402;8.550;2023-02-14T00:03:33;97916;;;3.87;64.76
2711;BME280;20721;47.402;8.550;2023-02-14T00:04:37;97915;;;3.84;64.92
2711;BME280;20721;47.402;8.550;2023-02-14T00:06:34;97906;;;3.87;65.06
2711;BME280;20721;47.402;8.550;2023-02-14T00:07:34;97910;;;3.92;64.78
2711;BME280;20721;47.402;8.550;2023-02-14T00:08:34;97908;;;3.94;64.80
2711;BME280;20721;47.402;8.550;2023-02-14T00:09:33;97906;;;3.90;64.63
2711;BME280;20721;47.402;8.550;2023-02-14T00:10:33;97908;;;3.86;64.85
2711;BME280;20721;47.402;8.550;2023-02-14T00:12:34;97912;;;3.87;65.01
2711;BME280;20721;47.402;8.550;2023-02-14T00:13:34;97916;;;3.89;64.86
2711;BME280;20721;47.402;8.550;2023-02-14T00:15:33;97916;;;3.90;64.80
2711;BME280;20721;47.402;8.550;2023-02-14T00:16:33;97916;;;3.89;64.82
2711;BME280;20721;47.402;8.550;2023-02-14T00:18:43;97911;;;3.87;64.73
2711;BME280;20721;47.402;8.550;2023-02-14T00:19:34;97914;;;3.84;64.95
2711;BME280;20721;47.402;8.550;2023-02-14T00:21:35;97909;;;3.85;64.98
2711;BME280;20721;47.402;8.550;2023-02-14T00:22:33;97912;;;3.86;64.90
2711;BME280;20721;47.402;8.550;2023-02-14T00:23:33;97913;;;3.84;64.93
2711;BME280;20721;47.402;8.550;2023-02-14T00:26:34;97914;;;3.77;65.22
2711;BME280;20721;47.402;8.550;2023-02-14T00:27:34;97916;;;3.72;65.36
2711;BME280;20721;47.402;8.550;2023-02-14T00:29:34;97915;;;3.70;65.52
2711;BME280;20721;47.402;8.550;2023-02-14T00:30:34;97914;;;3.68;65.54
2711;BME280;20721;47.402;8.550;2023-02-14T00:31:34;97914;;;3.65;65.63
2711;BME280;20721;47.402;8.550;2023-02-14T00:32:35;97912;;;3.62;65.77
2711;BME280;20721;47.402;8.550;2023-02-14T00:33:34;97911;;;3.57;65.95
2711;BME280;20721;47.402;8.550;2023-02-14T00:34:35;97912;;;3.55;65.90
2711;BME280;20721;47.402;8.550;2023-02-14T00:35:36;97910;;;3.42;66.45
2711;BME280;20721;47.402;8.550;2023-02-14T00:37:34;97908;;;3.38;66.54
2711;BME280;20721;47.402;8.550;2023-02-14T00:38:34;97910;;;3.40;66.57
2711;BME280;20721;47.402;8.550;2023-02-14T00:39:34;97911;;;3.43;66.52
2711;BME280;20721;47.402;8.550;2023-02-14T00:40:34;97912;;;3.49;66.43
2711;BME280;20721;47.402;8.550;2023-02-14T00:41:34;97912;;;3.53;66.13
2711;BME280;20721;47.402;8.550;2023-02-14T00:42:34;97914;;;3.54;66.18
2711;BME280;20721;47.402;8.550;2023-02-14T00:43:34;97910;;;3.53;65.98
2711;BME280;20721;47.402;8.550;2023-02-14T00:44:33;97915;;;3.54;66.17
2711;BME280;20721;47.402;8.550;2023-02-14T00:45:34;97914;;;3.56;66.09
2711;BME280;20721;47.402;8.550;2023-02-14T00:46:34;97918;;;3.55;66.10
2711;BME280;20721;47.402;8.550;2023-02-14T00:47:34;97918;;;3.56;66.07
2711;BME280;20721;47.402;8.550;2023-02-14T00:48:34;97919;;;3.54;66.18
2711;BME280;20721;47.402;8.550;2023-02-14T00:49:34;97919;;;3.53;66.34
2711;BME280;20721;47.402;8.550;2023-02-14T00:50:34;97918;;;3.50;66.33
2711;BME280;20721;47.402;8.550;2023-02-14T00:51:34;97921;;;3.49;66.61
2711;BME280;20721;47.402;8.550;2023-02-14T00:52:34;97926;;;3.36;66.59
2711;BME280;20721;47.402;8.550;2023-02-14T00:53:34;97923;;;3.34;66.97
2711;BME280;20721;47.402;8.550;2023-02-14T00:54:34;97924;;;3.31;66.85
2711;BME280;20721;47.402;8.550;2023-02-14T00:55:34;97924;;;3.15;67.20
2711;BME280;20721;47.402;8.550;2023-02-14T00:56:34;97922;;;3.11;67.47
2711;BME280;20721;47.402;8.550;2023-02-14T00:58:34;97927;;;3.16;67.67
2711;BME280;20721;47.402;8.550;2023-02-14T00:59:34;97920;;;3.19;67.61
2711;BME280;20721;47.402;8.550;2023-02-14T01:00:34;97923;;;3.15;67.48
2711;BME280;20721;47.402;8.550;2023-02-14T01:01:34;97922;;;3.18;67.73
2711;BME280;20721;47.402;8.550;2023-02-14T01:02:34;97924;;;3.13;67.55
2711;BME280;20721;47.402;8.550;2023-02-14T01:03:34;97923;;;3.14;67.66
2711;BME280;20721;47.402;8.550;2023-02-14T01:04:34;97921;;;3.15;67.66
2711;BME280;20721;47.402;8.550;2023-02-14T01:05:34;97924;;;3.18;67.72
2711;BME280;20721;47.402;8.550;2023-02-14T01:06:34;97919;;;3.17;67.25
2711;BME280;20721;47.402;8.550;2023-02-14T01:07:34;97917;;;3.16;67.65
2711;BME280;20721;47.402;8.550;2023-02-14T01:08:34;97920;;;3.18;67.59
2711;BME280;20721;47.402;8.550;2023-02-14T01:09:34;97918;;;3.23;67.62
2711;BME280;20721;47.402;8.550;2023-02-14T01:10:35;97918;;;3.28;67.58
2711;BME280;20721;47.402;8.550;2023-02-14T01:11:34;97916;;;3.34;67.33
2711;BME280;20721;47.402;8.550;2023-02-14T01:12:34;97913;;;3.40;67.28
2711;BME280;20721;47.402;8.550;2023-02-14T01:13:34;97918;;;3.37;66.67
2711;BME280;20721;47.402;8.550;2023-02-14T01:14:34;97917;;;3.29;66.97
2711;BME280;20721;47.402;8.550;2023-02-14T01:15:37;97918;;;3.07;67.47
2711;BME280;20721;47.402;8.550;2023-02-14T01:16:36;97912;;;2.93;68.08
2711;BME280;20721;47.402;8.550;2023-02-14T01:17:34;97914;;;2.96;68.46
2711;BME280;20721;47.402;8.550;2023-02-14T01:18:34;97916;;;3.06;68.31
2711;BME280;20721;47.402;8.550;2023-02-14T01:19:35;97919;;;3.18;67.89
2711;BME280;20721;47.402;8.550;2023-02-14T01:20:34;97924;;;3.25;67.31
2711;BME280;20721;47.402;8.550;2023-02-14T01:21:34;97923;;;3.31;66.93
2711;BME280;20721;47.402;8.550;2023-02-14T01:22:35;97922;;;3.33;66.91
2711;BME280;20721;47.402;8.550;2023-02-14T01:23:34;97924;;;3.36;66.81
2711;BME280;20721;47.402;8.550;2023-02-14T01:24:34;97919;;;3.24;66.61
2711;BME280;20721;47.402;8.550;2023-02-14T01:25:36;97922;;;3.20;67.05
2711;BME280;20721;47.402;8.550;2023-02-14T01:26:34;97920;;;3.19;66.94
2711;BME280;20721;47.402;8.550;2023-02-14T01:27:34;97915;;;3.21;67.03
2711;BME280;20721;47.402;8.550;2023-02-14T01:28:34;97916;;;3.24;66.76
2711;BME280;20721;47.402;8.550;2023-02-14T01:29:34;97914;;;3.22;66.88
2711;BME280;20721;47.402;8.550;2023-02-14T01:30:35;97916;;;3.25;66.81
2711;BME280;20721;47.402;8.550;2023-02-14T01:31:34;97913;;;3.26;66.80
2711;BME280;20721;47.402;8.550;2023-02-14T01:33:34;97911;;;3.30;66.81
2711;BME280;20721;47.402;8.550;2023-02-14T01:35:36;97910;;;3.28;66.76
2711;BME280;20721;47.402;8.550;2023-02-14T01:36:35;97911;;;3.29;66.80
2711;BME280;20721;47.402;8.550;2023-02-14T01:37:34;97906;;;3.12;66.89
2711;BME280;20721;47.402;8.550;2023-02-14T01:38:34;97905;;;2.96;67.40
2711;BME280;20721;47.402;8.550;2023-02-14T01:39:34;97910;;;2.74;68.14
2711;BME280;20721;47.402;8.550;2023-02-14T01:40:34;97910;;;2.56;68.92
2711;BME280;20721;47.402;8.550;2023-02-14T01:41:35;97905;;;2.46;69.32
2711;BME280;20721;47.402;8.550;2023-02-14T01:42:34;97909;;;2.42;69.70
2711;BME280;20721;47.402;8.550;2023-02-14T01:45:34;97902;;;2.65;69.36
2711;BME280;20721;47.402;8.550;2023-02-14T01:46:35;97899;;;2.74;68.99
2711;BME280;20721;47.402;8.550;2023-02-14T01:47:36;97902;;;2.80;68.96
2711;BME280;20721;47.402;8.550;2023-02-14T01:48:34;97900;;;2.86;69.02
2711;BME280;20721;47.402;8.550;2023-02-14T01:49:37;97897;;;2.95;68.88
2711;BME280;20721;47.402;8.550;2023-02-14T01:50:35;97901;;;3.07;68.59
2711;BME280;20721;47.402;8.550;2023-02-14T01:51:34;97901;;;3.12;67.82
2711;BME280;20721;47.402;8.550;2023-02-14T01:53:34;97898;;;3.06;68.07
2711;BME280;20721;47.402;8.550;2023-02-14T01:54:34;97893;;;2.88;68.24
2711;BME280;20721;47.402;8.550;2023-02-14T01:55:36;97892;;;2.84;68.61
2711;BME280;20721;47.402;8.550;2023-02-14T01:56:35;97893;;;2.88;68.59
2711;BME280;20721;47.402;8.550;2023-02-14T01:57:35;97892;;;2.90;68.29
2711;BME280;20721;47.402;8.550;2023-02-14T01:58:36;97893;;;2.94;68.27
2711;BME280;20721;47.402;8.550;2023-02-14T01:59:35;97891;;;3.00;68.26
2711;BME280;20721;47.402;8.550;2023-02-14T02:00:44;97893;;;3.08;67.92
2711;BME280;20721;47.402;8.550;2023-02-14T02:01:34;97896;;;3.07;67.42
2711;BME280;20721;47.402;8.550;2023-02-14T02:02:34;97893;;;3.02;67.38
2711;BME280;20721;47.402;8.550;2023-02-14T02:03:36;97892;;;2.95;67.54
2711;BME280;20721;47.402;8.550;2023-02-14T02:04:35;97892;;;2.91;67.76
2711;BME280;20721;47.402;8.550;2023-02-14T02:05:35;97889;;;2.85;68.01
2711;BME280;20721;47.402;8.550;2023-02-14T02:06:36;97892;;;2.68;68.34
2711;BME280;20721;47.402;8.550;2023-02-14T02:07:34;97893;;;2.50;68.92
2711;BME280;20721;47.402;8.550;2023-02-14T02:08:34;97893;;;2.33;69.40
2711;BME280;20721;47.402;8.550;2023-02-14T02:09:43;97893;;;2.24;69.95
2711;BME280;20721;47.402;8.550;2023-02-14T02:11:34;97891;;;2.25;70.30
2711;BME280;20721;47.402;8.550;2023-02-14T02:12:35;97889;;;2.22;70.38
2711;BME280;20721;47.402;8.550;2023-02-14T02:13:34;97891;;;2.17;70.08
2711;BME280;20721;47.402;8.550;2023-02-14T02:14:34;97887;;;2.04;70.44
2711;BME280;20721;47.402;8.550;2023-02-14T02:16:40;97886;;;2.09;70.92
2711;BME280;20721;47.402;8.550;2023-02-14T02:18:39;97885;;;2.05;70.97
2711;BME280;20721;47.402;8.550;2023-02-14T02:19:42;97884;;;2.09;71.15
2711;BME280;20721;47.402;8.550;2023-02-14T02:21:40;97882;;;2.28;70.69
2711;BME280;20721;47.402;8.550;2023-02-14T02:27:08;97876;;;2.71;68.92
2711;BME280;20721;47.402;8.550;2023-02-14T02:33:42;97881;;;2.96;68.29
2711;BME280;20721;47.402;8.550;2023-02-14T02:38:54;97873;;;3.30;67.30
2711;BME280;20721;47.402;8.550;2023-02-14T02:39:39;97873;;;3.33;67.18
2711;BME280;20721;47.402;8.550;2023-02-14T02:42:45;97871;;;3.31;67.26
2711;BME280;20721;47.402;8.550;2023-02-14T02:47:37;97869;;;3.38;67.78
2711;BME280;20721;47.402;8.550;2023-02-14T02:48:36;97873;;;3.43;67.44
2711;BME280;20721;47.402;8.550;2023-02-14T02:50:45;97875;;;3.51;66.78
2711;BME280;20721;47.402;8.550;2023-02-14T02:54:36;97870;;;3.55;66.79
2711;BME280;20721;47.402;8.550;2023-02-14T02:56:46;97863;;;3.58;66.64
2711;BME280;20721;47.402;8.550;2023-02-14T02:57:35;97866;;;3.48;66.69
2711;BME280;20721;47.402;8.550;2023-02-14T02:58:35;97860;;;3.43;67.18
2711;BME280;20721;47.402;8.550;2023-02-14T02:59:35;97860;;;3.46;67.11
2711;BME280;20721;47.402;8.550;2023-02-14T03:01:35;97855;;;3.50;67.35
2711;BME280;20721;47.402;8.550;2023-02-14T03:02:45;97853;;;3.55;67.26
2711;BME280;20721;47.402;8.550;2023-02-14T03:03:45;97854;;;3.59;66.98
2711;BME280;20721;47.402;8.550;2023-02-14T03:04:46;97855;;;3.64;67.08
2711;BME280;20721;47.402;8.550;2023-02-14T03:05:34;97858;;;3.70;67.12
2711;BME280;20721;47.402;8.550;2023-02-14T03:06:34;97854;;;3.73;66.68
2711;BME280;20721;47.402;8.550;2023-02-14T03:08:34;97854;;;3.67;66.48
2711;BME280;20721;47.402;8.550;2023-02-14T03:10:35;97854;;;3.57;66.88
2711;BME280;20721;47.402;8.550;2023-02-14T03:11:34;97860;;;3.59;66.51
2711;BME280;20721;47.402;8.550;2023-02-14T03:14:36;97859;;;3.35;66.55
2711;BME280;20721;47.402;8.550;2023-02-14T03:15:45;97857;;;3.27;67.18
2711;BME280;20721;47.402;8.550;2023-02-14T03:16:37;97859;;;3.15;67.29
2711;BME280;20721;47.402;8.550;2023-02-14T03:21:36;97859;;;3.21;67.54
2711;BME280;20721;47.402;8.550;2023-02-14T03:23:38;97863;;;3.29;67.25
2711;BME280;20721;47.402;8.550;2023-02-14T03:26:36;97864;;;3.04;67.42
2711;BME280;20721;47.402;8.550;2023-02-14T03:27:36;97866;;;2.94;67.44
2711;BME280;20721;47.402;8.550;2023-02-14T03:28:37;97864;;;2.82;67.82
2711;BME280;20721;47.402;8.550;2023-02-14T03:29:41;97863;;;2.72;68.49
2711;BME280;20721;47.402;8.550;2023-02-14T03:30:47;97861;;;2.70;68.37
2711;BME280;20721;47.402;8.550;2023-02-14T03:33:42;97865;;;2.68;68.73
2711;BME280;20721;47.402;8.550;2023-02-14T03:34:39;97862;;;2.64;69.32
2711;BME280;20721;47.402;8.550;2023-02-14T03:35:36;97862;;;2.69;69.56
2711;BME280;20721;47.402;8.550;2023-02-14T03:36:47;97864;;;2.79;69.10
2711;BME280;20721;47.402;8.550;2023-02-14T03:38:39;97864;;;3.02;68.27
2711;BME280;20721;47.402;8.550;2023-02-14T03:39:42;97866;;;3.12;68.11
2711;BME280;20721;47.402;8.550;2023-02-14T03:40:37;97865;;;3.20;68.29
2711;BME280;20721;47.402;8.550;2023-02-14T03:41:38;97864;;;3.29;68.07
2711;BME280;20721;47.402;8.550;2023-02-14T03:42:35;97868;;;3.36;67.85
2711;BME280;20721;47.402;8.550;2023-02-14T03:43:35;97868;;;3.44;67.63
2711;BME280;20721;47.402;8.550;2023-02-14T03:44:34;97867;;;3.53;67.45
2711;BME280;20721;47.402;8.550;2023-02-14T03:45:36;97872;;;3.60;67.13
2711;BME280;20721;47.402;8.550;2023-02-14T03:46:36;97869;;;3.66;66.86
2711;BME280;20721;47.402;8.550;2023-02-14T03:47:34;97870;;;3.70;66.71
2711;BME280;20721;47.402;8.550;2023-02-14T03:48:34;97867;;;3.72;66.60
2711;BME280;20721;47.402;8.550;2023-02-14T03:49:35;97867;;;3.76;66.22
2711;BME280;20721;47.402;8.550;2023-02-14T03:50:35;97869;;;3.78;65.96
2711;BME280;20721;47.402;8.550;2023-02-14T03:51:34;97866;;;3.79;66.05
2711;BME280;20721;47.402;8.550;2023-02-14T03:54:34;97865;;;3.74;65.74
2711;BME280;20721;47.402;8.550;2023-02-14T03:55:37;97869;;;3.69;65.83
2711;BME280;20721;47.402;8.550;2023-02-14T03:56:35;97869;;;3.63;66.14
2711;BME280;20721;47.402;8.550;2023-02-14T03:57:37;97870;;;3.57;66.25
2711;BME280;20721;47.402;8.550;2023-02-14T03:59:34;97871;;;3.59;66.78
2711;BME280;20721;47.402;8.550;2023-02-14T04:00:35;97873;;;3.62;66.43
2711;BME280;20721;47.402;8.550;2023-02-14T04:01:35;97869;;;3.64;66.39
2711;BME280;20721;47.402;8.550;2023-02-14T04:02:35;97867;;;3.65;66.04
2711;BME280;20721;47.402;8.550;2023-02-14T04:03:34;97868;;;3.60;65.61
2711;BME280;20721;47.402;8.550;2023-02-14T04:04:36;97865;;;3.49;65.45
2711;BME280;20721;47.402;8.550;2023-02-14T04:05:34;97868;;;3.43;66.28
2711;BME280;20721;47.402;8.550;2023-02-14T04:06:34;97864;;;3.42;66.38
2711;BME280;20721;47.402;8.550;2023-02-14T04:07:42;97869;;;3.43;65.93
2711;BME280;20721;47.402;8.550;2023-02-14T04:08:34;97867;;;3.38;66.14
2711;BME280;20721;47.402;8.550;2023-02-14T04:09:34;97866;;;3.20;65.83
2711;BME280;20721;47.402;8.550;2023-02-14T04:10:34;97868;;;3.03;66.49
2711;BME280;20721;47.402;8.550;2023-02-14T04:11:34;97869;;;2.85;67.22
2711;BME280;20721;47.402;8.550;2023-02-14T04:12:38;97868;;;2.72;67.45
2711;BME280;20721;47.402;8.550;2023-02-14T04:13:35;97867;;;2.50;68.14
2711;BME280;20721;47.402;8.550;2023-02-14T04:14:34;97873;;;2.41;68.80
2711;BME280;20721;47.402;8.550;2023-02-14T04:15:34;97874;;;2.32;69.04
2711;BME280;20721;47.402;8.550;2023-02-14T04:16:44;97869;;;2.21;69.16
2711;BME280;20721;47.402;8.550;2023-02-14T04:17:44;97867;;;2.22;69.64
2711;BME280;20721;47.402;8.550;2023-02-14T04:18:44;97869;;;2.15;69.64
2711;BME280;20721;47.402;8.550;2023-02-14T04:19:34;97865;;;2.06;69.74
2711;BME280;20721;47.402;8.550;2023-02-14T04:20:36;97865;;;1.93;69.88
2711;BME280;20721;47.402;8.550;2023-02-14T04:21:34;97866;;;1.85;70.65
2711;BME280;20721;47.402;8.550;2023-02-14T04:22:34;97866;;;1.81;70.87
2711;BME280;20721;47.402;8.550;2023-02-14T04:23:34;97869;;;1.79;70.88
2711;BME280;20721;47.402;8.550;2023-02-14T04:24:34;97867;;;1.71;71.01
2711;BME280;20721;47.402;8.550;2023-02-14T04:26:34;97864;;;1.74;70.68
2711;BME280;20721;47.402;8.550;2023-02-14T04:27:34;97866;;;1.76;70.53
2711;BME280;20721;47.402;8.550;2023-02-14T04:28:34;97859;;;1.78;70.45
2711;BME280;20721;47.402;8.550;2023-02-14T04:29:35;97859;;;1.83;70.34
2711;BME280;20721;47.402;8.550;2023-02-14T04:30:34;97858;;;1.84;69.90
2711;BME280;20721;47.402;8.550;2023-02-14T04:31:34;97861;;;1.79;70.06
2711;BME280;20721;47.402;8.550;2023-02-14T04:32:34;97861;;;1.81;70.42
2711;BME280;20721;47.402;8.550;2023-02-14T04:33:34;97859;;;1.90;69.97
2711;BME280;20721;47.402;8.550;2023-02-14T04:34:34;97857;;;1.83;69.82
2711;BME280;20721;47.402;8.550;2023-02-14T04:35:34;97857;;;1.87;70.19
2711;BME280;20721;47.402;8.550;2023-02-14T04:36:34;97853;;;2.02;69.96
2711;BME280;20721;47.402;8.550;2023-02-14T04:37:34;97855;;;2.15;69.88
2711;BME280;20721;47.402;8.550;2023-02-14T04:38:34;97853;;;2.21;68.96
2711;BME280;20721;47.402;8.550;2023-02-14T04:39:34;97854;;;2.23;68.83
2711;BME280;20721;47.402;8.550;2023-02-14T04:40:34;97851;;;2.22;68.80
2711;BME280;20721;47.402;8.550;2023-02-14T04:41:34;97851;;;2.28;68.62
2711;BME280;20721;47.402;8.550;2023-02-14T04:42:34;97853;;;2.33;68.51
2711;BME280;20721;47.402;8.550;2023-02-14T04:43:34;97852;;;2.38;68.60
2711;BME280;20721;47.402;8.550;2023-02-14T04:44:34;97849;;;2.39;68.51
2711;BME280;20721;47.402;8.550;2023-02-14T04:45:34;97850;;;2.43;68.57
2711;BME280;20721;47.402;8.550;2023-02-14T04:46:34;97854;;;2.48;68.54
2711;BME280;20721;47.402;8.550;2023-02-14T04:47:34;97854;;;2.54;68.38
2711;BME280;20721;47.402;8.550;2023-02-14T04:48:34;97852;;;2.62;67.88
2711;BME280;20721;47.402;8.550;2023-02-14T04:49:34;97855;;;2.65;67.88
2711;BME280;20721;47.402;8.550;2023-02-14T04:50:34;97855;;;2.69;67.72
2711;BME280;20721;47.402;8.550;2023-02-14T04:52:34;97854;;;2.66;67.68
2711;BME280;20721;47.402;8.550;2023-02-14T04:53:39;97856;;;2.70;67.68
2711;BME280;20721;47.402;8.550;2023-02-14T04:54:34;97857;;;2.72;67.61
2711;BME280;20721;47.402;8.550;2023-02-14T04:56:34;97856;;;2.75;67.46
2711;BME280;20721;47.402;8.550;2023-02-14T04:57:34;97855;;;2.76;67.21
2711;BME280;20721;47.402;8.550;2023-02-14T04:58:34;97857;;;2.80;67.08
2711;BME280;20721;47.402;8.550;2023-02-14T04:59:34;97858;;;2.72;66.69
2711;BME280;20721;47.402;8.550;2023-02-14T05:00:34;97855;;;2.62;66.83
2711;BME280;20721;47.402;8.550;2023-02-14T05:01:34;97858;;;2.52;67.03
2711;BME280;20721;47.402;8.550;2023-02-14T05:02:34;97861;;;2.47;67.42
2711;BME280;20721;47.402;8.550;2023-02-14T05:04:34;97859;;;2.52;67.70
2711;BME280;20721;47.402;8.550;2023-02-14T05:05:34;97861;;;2.58;67.71
2711;BME280;20721;47.402;8.550;2023-02-14T05:06:34;97860;;;2.62;67.57
2711;BME280;20721;47.402;8.550;2023-02-14T05:08:34;97861;;;2.65;67.31
2711;BME280;20721;47.402;8.550;2023-02-14T05:09:34;97859;;;2.66;67.09
2711;BME280;20721;47.402;8.550;2023-02-14T05:10:34;97859;;;2.65;67.03
2711;BME280;20721;47.402;8.550;2023-02-14T05:11:34;97862;;;2.67;67.16
2711;BME280;20721;47.402;8.550;2023-02-14T05:12:34;97860;;;2.68;66.90
2711;BME280;20721;47.402;8.550;2023-02-14T05:13:34;97860;;;2.64;66.71
2711;BME280;20721;47.402;8.550;2023-02-14T05:14:34;97857;;;2.63;66.75
2711;BME280;20721;47.402;8.550;2023-02-14T05:15:37;97857;;;2.68;66.79
2711;BME280;20721;47.402;8.550;2023-02-14T05:16:34;97859;;;2.71;66.48
2711;BME280;20721;47.402;8.550;2023-02-14T05:18:34;97863;;;2.67;66.22
2711;BME280;20721;47.402;8.550;2023-02-14T05:19:34;97863;;;2.64;66.30
2711;BME280;20721;47.402;8.550;2023-02-14T05:20:34;97860;;;2.63;66.31
2711;BME280;20721;47.402;8.550;2023-02-14T05:21:34;97859;;;2.64;66.28
2711;BME280;20721;47.402;8.550;2023-02-14T05:22:34;97860;;;2.61;66.18
2711;BME280;20721;47.402;8.550;2023-02-14T05:23:34;97861;;;2.59;66.28
2711;BME280;20721;47.402;8.550;2023-02-14T05:24:34;97861;;;2.55;66.25
2711;BME280;20721;47.402;8.550;2023-02-14T05:26:34;97861;;;2.54;66.54
2711;BME280;20721;47.402;8.550;2023-02-14T05:27:34;97862;;;2.52;66.34
2711;BME280;20721;47.402;8.550;2023-02-14T05:28:34;97862;;;2.49;66.47
2711;BME280;20721;47.402;8.550;2023-02-14T05:30:35;97860;;;2.47;66.46
2711;BME280;20721;47.402;8.550;2023-02-14T05:31:35;97867;;;2.48;66.64
2711;BME280;20721;47.402;8.550;2023-02-14T05:32:34;97866;;;2.47;66.55
2711;BME280;20721;47.402;8.550;2023-02-14T05:33:34;97869;;;2.48;66.48
2711;BME280;20721;47.402;8.550;2023-02-14T05:35:34;97872;;;2.45;66.38
2711;BME280;20721;47.402;8.550;2023-02-14T05:36:34;97869;;;2.46;66.50
2711;BME280;20721;47.402;8.550;2023-02-14T05:39:34;97875;;;2.50;66.32
2711;BME280;20721;47.402;8.550;2023-02-14T05:41:34;97873;;;2.54;66.33
2711;BME280;20721;47.402;8.550;2023-02-14T05:42:34;97872;;;2.57;66.15
2711;BME280;20721;47.402;8.550;2023-02-14T05:43:34;97876;;;2.61;66.00
2711;BME280;20721;47.402;8.550;2023-02-14T05:44:34;97876;;;2.62;65.79
2711;BME280;20721;47.402;8.550;2023-02-14T05:45:34;97879;;;2.65;65.65
2711;BME280;20721;47.402;8.550;2023-02-14T05:48:34;97881;;;2.61;65.43
2711;BME280;20721;47.402;8.550;2023-02-14T05:49:35;97882;;;2.60;65.80
2711;BME280;20721;47.402;8.550;2023-02-14T05:50:34;97882;;;2.65;65.97
2711;BME280;20721;47.402;8.550;2023-02-14T05:51:34;97880;;;2.69;65.54
2711;BME280;20721;47.402;8.550;2023-02-14T05:52:34;97878;;;2.72;65.31
2711;BME280;20721;47.402;8.550;2023-02-14T05:53:34;97877;;;2.64;65.23
2711;BME280;20721;47.402;8.550;2023-02-14T05:54:34;97879;;;2.49;65.67
2711;BME280;20721;47.402;8.550;2023-02-14T05:55:34;97876;;;2.46;66.05
2711;BME280;20721;47.402;8.550;2023-02-14T05:56:34;97875;;;2.47;66.29
2711;BME280;20721;47.402;8.550;2023-02-14T05:57:34;97876;;;2.52;66.20
2711;BME280;20721;47.402;8.550;2023-02-14T05:58:34;97872;;;2.57;65.99
2711;BME280;20721;47.402;8.550;2023-02-14T05:59:34;97874;;;2.61;65.94
2711;BME280;20721;47.402;8.550;2023-02-14T06:00:36;97870;;;2.62;65.75
2711;BME280;20721;47.402;8.550;2023-02-14T06:01:34;97873;;;2.64;65.74
2711;BME280;20721;47.402;8.550;2023-02-14T06:02:34;97872;;;2.66;65.59
2711;BME280;20721;47.402;8.550;2023-02-14T06:03:34;97874;;;2.68;65.67
2711;BME280;20721;47.402;8.550;2023-02-14T06:04:34;97876;;;2.70;65.72
2711;BME280;20721;47.402;8.550;2023-02-14T06:05:34;97874;;;2.72;65.83
2711;BME280;20721;47.402;8.550;2023-02-14T06:06:36;97871;;;2.75;65.43
2711;BME280;20721;47.402;8.550;2023-02-14T06:07:34;97877;;;2.78;65.41
2711;BME280;20721;47.402;8.550;2023-02-14T06:08:34;97876;;;2.79;65.37
2711;BME280;20721;47.402;8.550;2023-02-14T06:09:34;97876;;;2.83;65.36
2711;BME280;20721;47.402;8.550;2023-02-14T06:10:34;97876;;;2.87;65.42
2711;BME280;20721;47.402;8.550;2023-02-14T06:11:34;97875;;;2.90;65.34
2711;BME280;20721;47.402;8.550;2023-02-14T06:12:34;97875;;;2.94;65.35
2711;BME280;20721;47.402;8.550;2023-02-14T06:13:34;97875;;;2.99;65.32
2711;BME280;20721;47.402;8.550;2023-02-14T06:14:35;97879;;;3.05;65.23
2711;BME280;20721;47.402;8.550;2023-02-14T06:15:35;97876;;;3.09;64.96
2711;BME280;20721;47.402;8.550;2023-02-14T06:16:34;97874;;;3.11;64.96
2711;BME280;20721;47.402;8.550;2023-02-14T06:18:34;97874;;;3.02;64.81
2711;BME280;20721;47.402;8.550;2023-02-14T06:19:35;97876;;;2.96;64.84
2711;BME280;20721;47.402;8.550;2023-02-14T06:20:35;97878;;;2.94;65.12
2711;BME280;20721;47.402;8.550;2023-02-14T06:21:34;97875;;;2.97;64.99
2711;BME280;20721;47.402;8.550;2023-02-14T06:22:35;97877;;;2.99;64.88
2711;BME280;20721;47.402;8.550;2023-02-14T06:24:35;97876;;;2.95;64.78
2711;BME280;20721;47.402;8.550;2023-02-14T06:25:34;97876;;;2.94;64.97
2711;BME280;20721;47.402;8.550;2023-02-14T06:26:35;97877;;;2.91;64.78
2711;BME280;20721;47.402;8.550;2023-02-14T06:27:34;97878;;;2.88;64.95
2711;BME280;20721;47.402;8.550;2023-02-14T06:28:34;97880;;;2.89;65.10
2711;BME280;20721;47.402;8.550;2023-02-14T06:29:34;97879;;;2.92;65.07
2711;BME280;20721;47.402;8.550;2023-02-14T06:30:35;97883;;;2.93;64.91
2711;BME280;20721;47.402;8.550;2023-02-14T06:32:34;97885;;;2.92;64.92
2711;BME280;20721;47.402;8.550;2023-02-14T06:33:34;97887;;;2.91;64.96
2711;BME280;20721;47.402;8.550;2023-02-14T06:34:34;97884;;;2.84;64.86
2711;BME280;20721;47.402;8.550;2023-02-14T06:35:34;97881;;;2.78;65.10
2711;BME280;20721;47.402;8.550;2023-02-14T06:36:34;97883;;;2.74;65.30
2711;BME280;20721;47.402;8.550;2023-02-14T06:37:34;97886;;;2.72;65.19
2711;BME280;20721;47.402;8.550;2023-02-14T06:38:34;97885;;;2.71;65.23
2711;BME280;20721;47.402;8.550;2023-02-14T06:39:34;97886;;;2.70;65.21
2711;BME280;20721;47.402;8.550;2023-02-14T06:40:34;97889;;;2.71;65.32
2711;BME280;20721;47.402;8.550;2023-02-14T06:44:34;97893;;;2.69;65.20
2711;BME280;20721;47.402;8.550;2023-02-14T06:45:35;97895;;;2.68;65.27
2711;BME280;20721;47.402;8.550;2023-02-14T06:46:34;97897;;;2.67;65.31
2711;BME280;20721;47.402;8.550;2023-02-14T06:47:35;97904;;;2.66;65.37
2711;BME280;20721;47.402;8.550;2023-02-14T06:48:34;97903;;;2.67;65.57
2711;BME280;20721;47.402;8.550;2023-02-14T06:49:35;97903;;;2.64;65.38
2711;BME280;20721;47.402;8.550;2023-02-14T06:50:34;97900;;;2.60;65.32
2711;BME280;20721;47.402;8.550;2023-02-14T06:51:35;97903;;;2.61;65.57
2711;BME280;20721;47.402;8.550;2023-02-14T06:52:34;97905;;;2.65;65.51
2711;BME280;20721;47.402;8.550;2023-02-14T06:53:35;97907;;;2.68;65.46
2711;BME280;20721;47.402;8.550;2023-02-14T06:54:34;97907;;;2.72;65.39
2711;BME280;20721;47.402;8.550;2023-02-14T06:55:35;97913;;;2.69;65.22
2711;BME280;20721;47.402;8.550;2023-02-14T06:56:34;97911;;;2.55;65.47
2711;BME280;20721;47.402;8.550;2023-02-14T06:57:34;97913;;;2.53;65.67
2711;BME280;20721;47.402;8.550;2023-02-14T06:58:34;97914;;;2.54;66.02
2711;BME280;20721;47.402;8.550;2023-02-14T06:59:34;97915;;;2.53;65.73
2711;BME280;20721;47.402;8.550;2023-02-14T07:00:34;97913;;;2.43;65.94
2711;BME280;20721;47.402;8.550;2023-02-14T07:01:35;97914;;;2.41;66.27
2711;BME280;20721;47.402;8.550;2023-02-14T07:02:35;97917;;;2.45;66.11